createdAt,value
2022-09-02T00:01:57.444Z,0.50
2022-09-02T00:06:59.193Z,0.60
2022-09-02T00:12:00.940Z,0.50
2022-09-02T00:17:03.496Z,0.50
2022-09-02T00:22:05.176Z,0.60
2022-09-02T00:27:06.844Z,0.60
2022-09-02T00:32:08.484Z,0.60
2022-09-02T00:37:10.180Z,0.60
2022-09-02T00:42:12.048Z,0.80
2022-09-02T00:47:15.337Z,0.40
2022-09-02T00:52:24.218Z,0.63
2022-09-02T00:57:32.120Z,0.50
2022-09-02T01:02:37.333Z,0.57
2022-09-02T01:07:39.925Z,0.50
2022-09-02T01:12:42.365Z,0.82
2022-09-02T01:17:48.871Z,0.40
2022-09-02T01:22:54.787Z,0.35
2022-09-02T01:28:07.284Z,0.70
2022-09-02T01:33:10.700Z,0.70
2022-09-02T01:38:12.949Z,0.80
2022-09-02T01:43:17.754Z,0.52
2022-09-02T01:48:24.296Z,0.55
2022-09-02T01:53:28.597Z,0.60
2022-09-02T01:58:30.371Z,0.57
2022-09-02T02:03:32.466Z,0.68
2022-09-02T02:08:34.249Z,0.65
2022-09-02T02:13:36.773Z,0.60
2022-09-02T02:18:38.694Z,0.60
2022-09-02T02:23:40.497Z,0.65
2022-09-02T02:28:43.006Z,0.47
2022-09-02T02:33:44.792Z,0.70
2022-09-02T02:38:47.466Z,0.77
2022-09-02T02:43:49.325Z,0.70
2022-09-02T02:48:51.213Z,0.77
2022-09-02T02:53:55.729Z,0.63
2022-09-02T02:59:03.328Z,0.70
2022-09-02T03:04:06.060Z,1.10
2022-09-02T03:09:08.162Z,0.73
2022-09-02T03:14:11.965Z,0.80
2022-09-02T03:19:14.181Z,0.80
2022-09-02T03:24:16.258Z,1.10
2022-09-02T03:29:18.518Z,1.05
2022-09-02T03:34:20.733Z,0.90
2022-09-02T03:39:22.817Z,1.08
2022-09-02T03:44:24.476Z,1.00
2022-09-02T03:49:27.791Z,1.13
2022-09-02T03:54:29.569Z,1.13
2022-09-02T03:59:31.876Z,1.05
2022-09-02T04:04:33.821Z,1.20
2022-09-02T04:09:35.513Z,0.93
2022-09-02T04:14:37.269Z,1.13
2022-09-02T04:19:40.237Z,1.10
2022-09-02T04:24:41.952Z,1.20
2022-09-02T04:29:43.708Z,1.17
2022-09-02T04:34:45.956Z,1.73
2022-09-02T04:39:53.616Z,1.02
2022-09-02T04:44:57.754Z,1.10
2022-09-02T04:50:01.406Z,1.10
2022-09-02T04:55:06.978Z,1.50
2022-09-02T05:00:10.264Z,1.38
2022-09-02T05:05:13.006Z,1.65
2022-09-02T05:10:15.035Z,1.40
2022-09-02T05:15:18.590Z,1.25
2022-09-02T05:20:21.979Z,1.85
2022-09-02T05:25:23.906Z,1.42
2022-09-02T05:30:25.633Z,1.70
2022-09-02T05:35:27.478Z,1.65
2022-09-02T05:40:29.540Z,1.63
2022-09-02T05:45:34.225Z,1.60
2022-09-02T05:50:37.768Z,2.05
2022-09-02T05:55:40.269Z,1.48
2022-09-02T06:00:42.848Z,1.70
2022-09-02T06:05:57.336Z,1.52
2022-09-02T06:11:03.168Z,1.73
2022-09-02T06:16:09.040Z,1.48
2022-09-02T06:21:15.057Z,1.38
2022-09-02T06:26:20.492Z,1.70
2022-09-02T06:31:23.134Z,1.50
2022-09-02T06:36:28.153Z,1.40
2022-09-02T06:41:33.421Z,1.50
2022-09-02T06:51:45.133Z,1.42
2022-09-02T06:56:49.648Z,1.40
2022-09-02T07:01:53.573Z,1.30
2022-09-02T07:06:58.406Z,1.70
2022-09-02T07:12:06.294Z,1.60
2022-09-02T07:17:21.665Z,1.50
2022-09-02T07:22:28.117Z,1.00
2022-09-02T07:27:29.988Z,0.90
2022-09-02T07:32:32.664Z,1.45
2022-09-02T07:37:34.951Z,1.10
2022-09-02T07:42:37.965Z,0.90
2022-09-02T07:47:39.807Z,0.90
2022-09-02T07:52:44.591Z,0.90
2022-09-02T07:57:46.928Z,0.75
2022-09-02T08:02:49.961Z,1.08
2022-09-02T08:07:58.115Z,1.00
2022-09-02T08:13:05.576Z,0.80
2022-09-02T08:18:08.541Z,1.00
2022-09-02T08:23:25.579Z,0.90
2022-09-02T08:28:37.676Z,0.88
2022-09-02T08:33:39.648Z,0.93
2022-09-02T08:38:44.950Z,1.00
2022-09-02T08:43:47.258Z,0.98
2022-09-02T08:49:10.552Z,0.98
2022-09-02T08:54:26.370Z,1.02
2022-09-02T08:59:31.423Z,0.90
2022-09-02T09:04:58.076Z,0.90
2022-09-02T09:10:19.876Z,0.90
2022-09-02T09:15:58.939Z,0.90
2022-09-02T09:21:00.631Z,1.00
2022-09-02T09:26:11.088Z,0.93
2022-09-02T09:31:16.989Z,0.80
2022-09-02T09:36:18.665Z,0.90
2022-09-02T09:41:24.553Z,1.00
2022-09-02T09:46:32.202Z,1.13
2022-09-02T09:51:35.136Z,1.08
2022-09-02T09:56:51.884Z,0.93
2022-09-02T10:01:53.718Z,1.63
2022-09-02T10:06:55.445Z,1.00
2022-09-02T10:12:01.832Z,1.00
2022-09-02T10:17:27.877Z,0.98
2022-09-02T10:22:58.647Z,1.00
2022-09-02T10:28:21.359Z,1.10
2022-09-02T10:33:38.371Z,0.90
2022-09-02T10:38:44.594Z,1.08
2022-09-02T10:43:58.709Z,0.85
2022-09-02T10:49:29.498Z,0.88
2022-09-02T10:55:04.146Z,0.90
2022-09-02T11:00:18.385Z,1.00
2022-09-02T11:05:25.503Z,1.00
2022-09-02T11:10:37.146Z,0.80
2022-09-02T11:15:51.387Z,0.70
2022-09-02T11:21:04.751Z,0.82
2022-09-02T11:26:15.712Z,1.00
2022-09-02T11:31:25.053Z,0.90
2022-09-02T11:36:33.507Z,0.90
2022-09-02T11:42:04.294Z,0.70
2022-09-02T11:47:18.840Z,0.90
2022-09-02T11:52:58.899Z,0.70
2022-09-02T11:58:01.237Z,0.88
2022-09-02T12:03:16.776Z,1.00
2022-09-02T12:08:27.598Z,0.75
2022-09-02T12:13:38.097Z,0.90
2022-09-02T12:18:43.728Z,1.10
2022-09-02T12:23:51.944Z,0.88
2022-09-02T12:29:10.145Z,0.98
2022-09-02T12:34:22.323Z,0.80
2022-09-02T12:39:30.589Z,0.85
2022-09-02T12:44:43.036Z,0.70
2022-09-02T12:50:10.518Z,0.98
2022-09-02T12:55:28.030Z,0.80
2022-09-02T13:00:58.780Z,0.80
2022-09-02T13:06:00.356Z,0.70
2022-09-02T13:11:46.385Z,0.90
2022-09-02T13:17:39.169Z,1.00
2022-09-02T13:23:12.104Z,0.70
2022-09-02T13:28:57.072Z,0.68
2022-09-02T13:34:04.271Z,0.90
2022-09-02T13:39:23.997Z,0.60
2022-09-02T13:44:29.358Z,0.80
2022-09-02T13:49:37.858Z,1.00
2022-09-02T13:54:43.415Z,0.80
2022-09-02T13:59:50.752Z,0.90
2022-09-02T14:04:58.361Z,0.80
2022-09-02T14:10:03.048Z,0.80
2022-09-02T14:15:07.461Z,0.85
2022-09-02T14:20:10.157Z,0.95
2022-09-02T14:25:16.597Z,1.00
2022-09-02T14:30:38.449Z,1.05
2022-09-02T14:35:40.117Z,0.88
2022-09-02T14:40:45.329Z,0.85
2022-09-02T14:45:49.585Z,0.85
2022-09-02T14:51:02.262Z,1.00
2022-09-02T14:56:05.896Z,0.82
2022-09-02T15:01:08.693Z,0.90
2022-09-02T15:06:14.987Z,0.90
2022-09-02T15:11:20.258Z,0.95
2022-09-02T15:16:21.972Z,1.13
2022-09-02T15:21:24.053Z,0.93
2022-09-02T15:26:25.697Z,1.00
2022-09-02T15:31:27.356Z,0.90
2022-09-02T15:36:29.120Z,1.10
2022-09-02T15:41:34.596Z,1.08
2022-09-02T15:46:39.521Z,0.80
2022-09-02T15:51:45.052Z,1.27
2022-09-02T15:56:47.736Z,0.70
2022-09-02T16:01:55.340Z,0.75
2022-09-02T16:06:57.407Z,1.00
2022-09-02T16:11:59.103Z,0.90
2022-09-02T16:17:00.770Z,0.80
2022-09-02T16:22:02.444Z,0.95
2022-09-02T16:27:04.201Z,1.02
2022-09-02T16:32:24.332Z,1.02
2022-09-02T16:37:27.512Z,0.80
2022-09-02T16:42:29.376Z,0.90
2022-09-02T16:47:31.738Z,1.65
2022-09-02T16:52:35.058Z,0.85
2022-09-02T16:57:36.657Z,1.23
2022-09-02T17:02:38.290Z,0.85
2022-09-02T17:07:39.906Z,0.80
2022-09-02T17:12:43.244Z,0.80
2022-09-02T17:17:45.028Z,0.80
2022-09-02T17:22:46.982Z,0.90
2022-09-02T17:27:48.969Z,0.85
2022-09-02T17:32:55.767Z,0.80
2022-09-02T17:38:05.774Z,0.70
2022-09-02T17:43:07.403Z,0.75
2022-09-02T17:48:34.246Z,0.70
2022-09-02T17:53:31.055Z,0.73
2022-09-02T17:58:45.203Z,0.80
2022-09-02T18:04:26.519Z,0.57
2022-09-02T18:09:28.646Z,0.77
2022-09-02T18:14:47.580Z,0.80
2022-09-02T18:19:57.870Z,0.70
2022-09-02T18:25:29.867Z,0.80
2022-09-02T18:30:46.714Z,0.50
2022-09-02T18:36:19.843Z,0.70
2022-09-02T18:41:42.900Z,0.80
2022-09-02T18:46:56.399Z,0.60
2022-09-02T18:52:00.728Z,0.90
2022-09-02T18:57:07.497Z,0.68
2022-09-02T19:02:36.139Z,0.60
2022-09-02T19:07:56.719Z,0.60
2022-09-02T19:13:01.384Z,0.50
2022-09-02T19:18:03.036Z,0.50
2022-09-02T19:23:06.626Z,0.68
2022-09-02T19:28:12.417Z,0.70
2022-09-02T19:33:15.629Z,0.50
2022-09-02T19:38:17.619Z,0.55
2022-09-02T19:43:20.210Z,0.73
2022-09-02T19:48:22.048Z,0.60
2022-09-02T19:53:29.925Z,0.50
2022-09-02T19:58:31.534Z,0.70
2022-09-02T20:03:36.445Z,0.70
2022-09-02T20:08:38.079Z,0.60
2022-09-02T20:13:41.615Z,0.40
2022-09-02T20:18:46.568Z,0.50
2022-09-02T20:23:48.210Z,0.45
2022-09-02T20:29:20.437Z,0.40
2022-09-02T20:34:43.737Z,0.43
2022-09-02T20:40:07.646Z,0.60
2022-09-02T20:45:33.014Z,0.40
2022-09-02T20:50:41.893Z,0.80
2022-09-02T20:55:50.610Z,0.50
2022-09-02T21:01:06.377Z,0.47
2022-09-02T21:06:10.863Z,0.47
2022-09-02T21:11:15.263Z,0.80
2022-09-02T21:16:26.928Z,0.40
2022-09-02T21:21:34.413Z,0.50
2022-09-02T21:26:49.384Z,0.60
2022-09-02T21:32:10.330Z,0.50
2022-09-02T21:37:13.880Z,0.55
2022-09-02T21:42:34.810Z,0.50
2022-09-02T21:48:18.735Z,0.80
2022-09-02T21:53:51.005Z,0.57
2022-09-02T21:59:30.986Z,0.43
2022-09-02T22:04:55.048Z,0.50
2022-09-02T22:10:33.814Z,0.55
2022-09-02T22:15:58.203Z,0.57
2022-09-02T22:21:08.130Z,0.50
2022-09-02T22:26:44.333Z,0.50
2022-09-02T22:31:48.320Z,0.60
2022-09-02T22:36:59.414Z,0.50
2022-09-02T22:42:15.933Z,0.60
2022-09-02T22:47:36.831Z,0.43
2022-09-02T22:52:49.248Z,0.60
2022-09-02T22:58:23.719Z,0.47
2022-09-02T23:03:40.976Z,0.50
2022-09-02T23:14:16.038Z,0.50
2022-09-02T23:19:34.924Z,0.75
2022-09-02T23:25:15.440Z,0.50
2022-09-02T23:30:17.652Z,0.45
2022-09-02T23:35:33.170Z,0.50
2022-09-02T23:40:55.850Z,0.50
2022-09-02T23:46:01.130Z,0.63
2022-09-02T23:51:19.107Z,0.55
2022-09-02T23:56:33.624Z,0.65
